createdAt,value
2019-02-25T00:02:31.593Z,18.40
2019-02-25T00:06:35.378Z,20.13
2019-02-25T00:10:39.460Z,21.43
2019-02-25T00:14:42.754Z,19.60
2019-02-25T00:18:46.126Z,20.10
2019-02-25T00:22:49.408Z,22.33
2019-02-25T00:26:52.712Z,22.83
2019-02-25T00:30:56.001Z,20.70
2019-02-25T00:34:59.741Z,16.20
2019-02-25T00:39:03.357Z,19.13
2019-02-25T00:43:07.049Z,22.10
2019-02-25T00:47:10.347Z,20.83
2019-02-25T00:51:13.651Z,21.60
2019-02-25T00:55:18.486Z,22.30
2019-02-25T00:59:21.778Z,21.23
2019-02-25T01:03:25.107Z,22.77
2019-02-25T01:07:28.390Z,23.57
2019-02-25T01:11:31.781Z,22.33
2019-02-25T01:15:35.570Z,22.70
2019-02-25T01:19:38.878Z,24.97
2019-02-25T01:23:42.690Z,23.90
2019-02-25T01:27:45.986Z,19.60
2019-02-25T01:31:49.293Z,19.57
2019-02-25T01:35:53.375Z,22.60
2019-02-25T01:39:57.099Z,24.70
2019-02-25T01:44:00.702Z,23.20
2019-02-25T01:48:04.063Z,21.53
2019-02-25T01:52:07.359Z,22.50
2019-02-25T01:56:10.978Z,23.83
2019-02-25T02:00:14.794Z,23.67
2019-02-25T02:04:18.122Z,20.17
2019-02-25T02:08:21.411Z,21.50
2019-02-25T02:12:24.734Z,18.97
2019-02-25T02:16:28.018Z,22.37
2019-02-25T02:20:31.322Z,20.60
2019-02-25T02:24:34.899Z,24.60
2019-02-25T02:28:38.794Z,21.67
2019-02-25T02:32:42.508Z,22.07
2019-02-25T02:36:46.237Z,19.63
2019-02-25T02:40:49.545Z,20.23
2019-02-25T02:44:54.258Z,20.67
2019-02-25T02:49:00.139Z,19.23
2019-02-25T02:53:03.438Z,21.67
2019-02-25T02:57:10.582Z,20.70
2019-02-25T03:01:13.858Z,19.90
2019-02-25T03:05:18.495Z,18.20
2019-02-25T03:09:21.787Z,18.00
2019-02-25T03:13:25.876Z,18.20
2019-02-25T03:17:29.186Z,19.17
2019-02-25T03:21:32.482Z,18.10
2019-02-25T03:25:35.762Z,18.00
2019-02-25T03:29:39.808Z,16.70
2019-02-25T03:33:43.092Z,18.33
2019-02-25T03:37:46.928Z,16.77
2019-02-25T03:41:50.255Z,21.00
2019-02-25T03:45:53.554Z,21.30
2019-02-25T03:49:57.966Z,20.23
2019-02-25T03:54:01.975Z,20.30
2019-02-25T03:58:05.790Z,19.67
2019-02-25T04:02:09.094Z,19.23
2019-02-25T04:06:12.378Z,17.57
2019-02-25T04:10:15.859Z,16.57
2019-02-25T04:14:19.602Z,19.20
2019-02-25T04:18:22.903Z,17.27
2019-02-25T04:22:26.963Z,18.53
2019-02-25T04:26:30.963Z,17.63
2019-02-25T04:30:34.684Z,17.93
2019-02-25T04:34:38.254Z,16.80
2019-02-25T04:38:41.542Z,17.13
2019-02-25T04:42:45.126Z,17.03
2019-02-25T04:46:48.430Z,18.90
2019-02-25T04:50:51.948Z,17.60
2019-02-25T04:54:55.674Z,18.20
2019-02-25T04:58:58.994Z,21.47
2019-02-25T05:03:02.282Z,21.00
2019-02-25T05:07:06.026Z,21.03
2019-02-25T05:11:09.314Z,21.40
2019-02-25T05:15:15.454Z,19.00
2019-02-25T05:19:19.501Z,19.60
2019-02-25T05:23:23.219Z,20.87
2019-02-25T05:27:27.234Z,20.80
2019-02-25T05:31:30.850Z,20.10
2019-02-25T05:35:34.150Z,20.53
2019-02-25T05:39:37.452Z,20.30
2019-02-25T05:43:41.080Z,18.93
2019-02-25T05:47:44.392Z,21.40
2019-02-25T05:51:48.099Z,19.60
2019-02-25T05:55:51.406Z,21.03
2019-02-25T05:59:55.759Z,23.23
2019-02-25T06:03:59.482Z,22.97
2019-02-25T06:08:03.578Z,21.43
2019-02-25T06:12:06.863Z,22.50
2019-02-25T06:16:10.206Z,19.00
2019-02-25T06:20:13.811Z,19.40
2019-02-25T06:24:17.534Z,19.70
2019-02-25T06:28:21.111Z,19.60
2019-02-25T06:32:24.486Z,18.23
2019-02-25T06:36:28.024Z,18.30
2019-02-25T06:40:31.403Z,17.00
2019-02-25T06:44:35.114Z,17.93
2019-02-25T06:48:38.413Z,19.53
2019-02-25T06:52:41.778Z,20.13
2019-02-25T06:56:45.054Z,19.90
2019-02-25T07:00:49.190Z,21.10
2019-02-25T07:04:57.869Z,19.77
2019-02-25T07:09:14.418Z,19.93
2019-02-25T07:13:37.743Z,20.17
2019-02-25T07:17:59.070Z,26.00
2019-02-25T07:22:40.164Z,23.00
2019-02-25T07:27:05.542Z,26.67
2019-02-25T07:31:19.654Z,26.03
2019-02-25T07:35:43.613Z,24.23
2019-02-25T07:40:15.050Z,23.30
2019-02-25T07:44:36.369Z,22.33
2019-02-25T07:48:52.305Z,23.10
2019-02-25T07:53:19.050Z,22.50
2019-02-25T07:57:35.586Z,21.20
2019-02-25T08:01:53.226Z,21.87
2019-02-25T08:06:27.159Z,21.10
2019-02-25T08:10:39.530Z,22.40
2019-02-25T08:15:02.411Z,22.20
2019-02-25T08:19:23.914Z,21.57
2019-02-25T08:23:52.850Z,22.50
2019-02-25T08:28:07.522Z,22.53
2019-02-25T08:32:29.599Z,19.77
2019-02-25T08:37:19.249Z,21.37
2019-02-25T08:41:33.434Z,20.53
2019-02-25T08:45:52.403Z,18.60
2019-02-25T08:49:59.281Z,18.53
2019-02-25T08:54:03.086Z,20.70
2019-02-25T08:58:06.374Z,20.30
2019-02-25T09:02:09.682Z,22.83
2019-02-25T09:06:13.265Z,19.97
2019-02-25T09:10:17.310Z,17.70
2019-02-25T09:14:21.199Z,19.87
2019-02-25T09:18:24.518Z,17.33
2019-02-25T09:22:27.808Z,15.33
2019-02-25T09:26:31.119Z,16.07
2019-02-25T09:30:34.418Z,17.30
2019-02-25T09:34:38.471Z,17.63
2019-02-25T09:38:42.051Z,14.77
2019-02-25T09:42:45.526Z,13.10
2019-02-25T09:46:49.554Z,13.50
2019-02-25T09:50:53.194Z,13.87
2019-02-25T09:54:56.932Z,13.97
2019-02-25T09:59:00.239Z,14.87
2019-02-25T10:03:03.984Z,13.50
2019-02-25T10:07:07.806Z,13.70
2019-02-25T10:11:11.615Z,13.87
2019-02-25T10:15:15.398Z,14.87
2019-02-25T10:19:19.146Z,13.13
2019-02-25T10:23:22.867Z,13.60
2019-02-25T10:27:26.169Z,12.97
2019-02-25T10:31:29.458Z,12.93
2019-02-25T10:35:33.070Z,13.60
2019-02-25T10:39:36.818Z,13.27
2019-02-25T10:43:40.118Z,14.20
2019-02-25T10:47:44.732Z,14.47
2019-02-25T10:51:49.631Z,14.87
2019-02-25T10:55:58.810Z,14.27
2019-02-25T11:00:05.019Z,14.87
2019-02-25T11:04:08.410Z,16.10
2019-02-25T11:08:14.202Z,13.83
2019-02-25T11:12:17.551Z,14.27
2019-02-25T11:16:21.442Z,14.00
2019-02-25T11:20:24.886Z,13.43
2019-02-25T11:24:28.182Z,14.10
2019-02-25T11:28:32.253Z,15.20
2019-02-25T11:32:36.502Z,13.10
2019-02-25T11:36:40.239Z,14.77
2019-02-25T11:40:43.996Z,13.10
2019-02-25T11:44:47.284Z,13.10
2019-02-25T11:48:51.338Z,14.90
2019-02-25T11:52:55.359Z,14.50
2019-02-25T11:56:59.160Z,13.77
2019-02-25T12:01:02.458Z,15.20
2019-02-25T12:05:06.250Z,14.50
2019-02-25T12:09:09.558Z,15.37
2019-02-25T12:13:13.302Z,14.93
2019-02-25T12:17:16.590Z,13.90
2019-02-25T12:21:20.587Z,14.23
2019-02-25T12:25:24.836Z,13.33
2019-02-25T12:29:28.574Z,13.27
2019-02-25T12:33:31.863Z,15.47
2019-02-25T12:37:35.170Z,13.83
2019-02-25T12:41:38.458Z,14.57
2019-02-25T12:45:41.830Z,14.63
2019-02-25T12:49:45.114Z,11.90
2019-02-25T12:53:48.926Z,12.90
2019-02-25T12:57:52.218Z,13.90
2019-02-25T13:01:55.966Z,12.80
2019-02-25T13:06:01.446Z,12.60
2019-02-25T13:10:06.462Z,11.83
2019-02-25T13:14:10.198Z,12.50
2019-02-25T13:18:13.498Z,13.73
2019-02-25T13:22:17.230Z,11.97
2019-02-25T13:26:20.623Z,12.20
2019-02-25T13:30:23.934Z,14.57
2019-02-25T13:34:27.294Z,14.03
2019-02-25T13:38:30.710Z,13.57
2019-02-25T13:42:34.078Z,14.00
2019-02-25T13:46:37.912Z,15.10
2019-02-25T13:50:41.646Z,14.67
2019-02-25T13:54:45.299Z,13.10
2019-02-25T13:58:48.916Z,11.90
2019-02-25T14:02:52.827Z,12.47
2019-02-25T14:06:56.190Z,12.70
2019-02-25T14:11:00.270Z,12.93
2019-02-25T14:15:03.754Z,12.87
2019-02-25T14:19:07.134Z,14.40
2019-02-25T14:23:11.064Z,12.67
2019-02-25T14:27:15.123Z,12.50
2019-02-25T14:31:18.426Z,13.23
2019-02-25T14:35:22.835Z,13.93
2019-02-25T14:39:28.435Z,12.70
2019-02-25T14:43:37.189Z,14.20
2019-02-25T14:47:39.565Z,13.47
2019-02-25T14:51:42.436Z,13.77
2019-02-25T14:55:47.816Z,13.90
2019-02-25T14:59:51.134Z,14.90
2019-02-25T15:03:55.990Z,36.10
2019-02-25T15:07:59.962Z,14.30
2019-02-25T15:12:04.134Z,13.00
2019-02-25T15:16:09.377Z,13.97
2019-02-25T15:20:16.392Z,14.30
2019-02-25T15:24:19.089Z,14.17
2019-02-25T15:28:22.878Z,15.40
2019-02-25T15:32:27.207Z,15.00
2019-02-25T15:36:30.558Z,13.43
2019-02-25T15:40:34.371Z,14.00
2019-02-25T15:44:37.658Z,14.87
2019-02-25T15:48:43.145Z,15.07
2019-02-25T15:52:46.903Z,15.07
2019-02-25T15:56:50.194Z,15.00
2019-02-25T16:00:53.998Z,16.10
2019-02-25T16:04:58.643Z,14.30
2019-02-25T16:09:03.654Z,12.93
2019-02-25T16:13:11.157Z,22.00
2019-02-25T16:17:12.054Z,12.23
2019-02-25T16:21:15.890Z,13.50
2019-02-25T16:25:19.282Z,12.77
2019-02-25T16:29:23.010Z,13.20
2019-02-25T16:33:28.189Z,12.30
2019-02-25T16:37:33.461Z,11.23
2019-02-25T16:41:39.251Z,12.80
2019-02-25T16:45:44.619Z,11.20
2019-02-25T16:49:49.821Z,12.77
2019-02-25T16:53:53.015Z,14.03
2019-02-25T16:57:59.074Z,12.83
2019-02-25T17:02:04.671Z,11.20
2019-02-25T17:06:09.211Z,12.47
2019-02-25T17:10:14.058Z,12.20
2019-02-25T17:14:19.157Z,13.70
2019-02-25T17:18:23.567Z,14.50
2019-02-25T17:22:27.286Z,14.07
2019-02-25T17:26:31.046Z,13.50
2019-02-25T17:30:34.341Z,13.20
2019-02-25T17:34:39.378Z,14.70
2019-02-25T17:38:45.208Z,14.00
2019-02-25T17:42:49.429Z,13.30
2019-02-25T17:46:55.312Z,13.80
2019-02-25T17:50:59.813Z,14.17
2019-02-25T17:55:06.362Z,13.80
2019-02-25T17:59:10.270Z,14.23
2019-02-25T18:03:14.972Z,13.77
2019-02-25T18:07:19.114Z,13.67
2019-02-25T18:11:24.181Z,16.30
2019-02-25T18:15:30.546Z,15.90
2019-02-25T18:19:34.038Z,15.37
2019-02-25T18:23:37.659Z,15.40
2019-02-25T18:27:41.417Z,13.70
2019-02-25T18:31:46.003Z,13.30
2019-02-25T18:35:49.294Z,13.80
2019-02-25T18:39:54.217Z,13.87
2019-02-25T18:43:57.618Z,15.00
2019-02-25T18:48:02.072Z,15.83
2019-02-25T18:52:06.134Z,14.50
2019-02-25T18:56:11.897Z,15.10
2019-02-25T19:00:19.988Z,14.07
2019-02-25T19:04:23.950Z,16.40
2019-02-25T19:08:29.085Z,15.10
2019-02-25T19:12:33.603Z,12.47
2019-02-25T19:16:38.038Z,12.13
2019-02-25T19:20:43.360Z,14.33
2019-02-25T19:24:49.255Z,17.80
2019-02-25T19:28:54.704Z,19.37
2019-02-25T19:33:07.923Z,19.27
2019-02-25T19:37:05.156Z,16.80
2019-02-25T19:41:11.025Z,16.80
2019-02-25T19:45:14.674Z,14.67
2019-02-25T19:49:20.379Z,14.87
2019-02-25T19:53:23.602Z,17.03
2019-02-25T19:57:28.498Z,15.73
2019-02-25T20:01:32.511Z,16.80
2019-02-25T20:05:38.950Z,15.17
2019-02-25T20:09:41.311Z,14.93
2019-02-25T20:13:45.703Z,17.33
2019-02-25T20:17:52.842Z,18.53
2019-02-25T20:21:56.867Z,17.57
2019-02-25T20:26:00.282Z,16.30
2019-02-25T20:30:05.352Z,17.17
2019-02-25T20:34:10.335Z,18.67
2019-02-25T20:38:13.894Z,18.03
2019-02-25T20:42:20.933Z,19.93
2019-02-25T20:46:24.523Z,21.43
2019-02-25T20:50:27.503Z,19.63
2019-02-25T20:54:30.798Z,18.90
2019-02-25T20:58:36.064Z,17.77
2019-02-25T21:02:39.923Z,19.23
2019-02-25T21:06:44.095Z,20.07
2019-02-25T21:10:48.278Z,19.70
2019-02-25T21:14:52.018Z,19.30
2019-02-25T21:18:55.406Z,19.17
2019-02-25T21:23:02.825Z,19.40
2019-02-25T21:27:05.883Z,17.00
2019-02-25T21:31:13.523Z,18.77
2019-02-25T21:35:14.414Z,15.60
2019-02-25T21:39:19.163Z,17.30
2019-02-25T21:43:24.138Z,17.33
2019-02-25T21:47:28.693Z,15.87
2019-02-25T21:51:35.178Z,17.03
2019-02-25T21:55:38.502Z,17.83
2019-02-25T21:59:41.786Z,18.60
2019-02-25T22:03:48.017Z,19.40
2019-02-25T22:07:54.440Z,16.07
2019-02-25T22:11:55.562Z,16.83
2019-02-25T22:16:01.096Z,17.70
2019-02-25T22:20:07.501Z,17.17
2019-02-25T22:24:11.042Z,17.13
2019-02-25T22:28:14.843Z,30.33
2019-02-25T22:32:18.148Z,25.73
2019-02-25T22:36:21.430Z,22.27
2019-02-25T22:40:24.730Z,20.47
2019-02-25T22:44:30.744Z,21.83
2019-02-25T22:48:35.711Z,19.50
2019-02-25T22:52:39.011Z,17.30
2019-02-25T22:56:42.294Z,14.67
2019-02-25T23:00:58.276Z,15.30
2019-02-25T23:04:59.723Z,17.73
2019-02-25T23:09:03.415Z,20.30
2019-02-25T23:13:07.219Z,16.50
2019-02-25T23:17:11.485Z,15.17
2019-02-25T23:21:23.519Z,19.70
2019-02-25T23:25:21.830Z,18.13
2019-02-25T23:29:28.240Z,17.87
2019-02-25T23:33:31.015Z,18.00
2019-02-25T23:37:34.742Z,14.30
2019-02-25T23:41:39.040Z,15.77
2019-02-25T23:45:44.295Z,16.90
2019-02-25T23:49:48.649Z,17.77
2019-02-25T23:53:53.569Z,18.67
2019-02-25T23:57:57.598Z,17.90
